createdAt,value
2019-02-04T00:01:22.564Z,-0.06
2019-02-04T00:04:11.714Z,-0.06
2019-02-04T00:07:00.856Z,0.05
2019-02-04T00:09:49.352Z,-0.01
2019-02-04T00:12:37.550Z,0.05
2019-02-04T00:15:26.286Z,0.00
2019-02-04T00:18:15.055Z,0.10
2019-02-04T00:21:03.590Z,0.10
2019-02-04T00:23:52.565Z,0.09
2019-02-04T00:26:51.364Z,0.15
2019-02-04T00:29:32.238Z,0.17
2019-02-04T00:32:20.882Z,0.18
2019-02-04T00:35:10.397Z,0.18
2019-02-04T00:37:58.684Z,0.21
2019-02-04T00:40:48.027Z,0.23
2019-02-04T00:43:36.388Z,-0.06
2019-02-04T00:46:25.275Z,-0.01
2019-02-04T00:49:13.642Z,0.00
2019-02-04T00:52:01.790Z,0.03
2019-02-04T00:54:50.898Z,0.09
2019-02-04T00:57:39.069Z,0.03
2019-02-04T01:00:29.257Z,0.02
2019-02-04T01:03:18.416Z,-0.03
2019-02-04T01:06:06.971Z,0.07
2019-02-04T01:08:56.038Z,0.05
2019-02-04T01:11:44.916Z,0.10
2019-02-04T01:14:34.015Z,0.13
2019-02-04T01:17:22.085Z,0.15
2019-02-04T01:20:11.775Z,0.15
2019-02-04T01:23:00.485Z,0.06
2019-02-04T01:25:49.527Z,0.07
2019-02-04T01:28:38.218Z,0.08
2019-02-04T01:31:26.931Z,0.05
2019-02-04T01:34:15.325Z,0.08
2019-02-04T01:37:04.366Z,0.01
2019-02-04T01:39:52.799Z,0.02
2019-02-04T01:42:41.331Z,-0.01
2019-02-04T01:45:29.354Z,0.03
2019-02-04T01:48:18.219Z,0.02
2019-02-04T01:51:06.471Z,0.02
2019-02-04T01:53:54.679Z,0.01
2019-02-04T01:56:43.703Z,-0.09
2019-02-04T01:59:32.307Z,-0.02
2019-02-04T02:02:20.744Z,-0.02
2019-02-04T02:05:09.248Z,-0.05
2019-02-04T02:07:58.319Z,0.04
2019-02-04T02:10:47.235Z,0.01
2019-02-04T02:13:36.338Z,0.01
2019-02-04T02:16:24.919Z,-0.01
2019-02-04T02:19:14.089Z,0.06
2019-02-04T02:22:02.405Z,-0.08
2019-02-04T02:24:51.362Z,-0.04
2019-02-04T02:27:40.429Z,-0.05
2019-02-04T02:30:31.194Z,-0.06
2019-02-04T02:33:20.515Z,0.05
2019-02-04T02:36:09.216Z,-0.02
2019-02-04T02:38:58.197Z,-0.02
2019-02-04T02:41:46.848Z,-0.12
2019-02-04T02:44:35.860Z,-0.08
2019-02-04T02:47:24.556Z,-0.04
2019-02-04T02:50:14.295Z,-0.05
2019-02-04T02:53:02.649Z,-0.07
2019-02-04T02:55:51.540Z,-0.14
2019-02-04T02:58:39.965Z,-0.10
2019-02-04T03:01:28.974Z,-0.11
2019-02-04T03:04:17.158Z,-0.04
2019-02-04T03:07:05.711Z,-0.15
2019-02-04T03:09:53.913Z,-0.07
2019-02-04T03:12:42.479Z,-0.10
2019-02-04T03:15:30.972Z,-0.11
2019-02-04T03:18:19.057Z,-0.05
2019-02-04T03:21:08.517Z,-0.01
2019-02-04T03:24:00.641Z,-0.09
2019-02-04T03:26:47.363Z,-0.06
2019-02-04T03:29:36.430Z,-0.12
2019-02-04T03:32:25.202Z,-0.13
2019-02-04T03:35:13.349Z,0.00
2019-02-04T03:38:02.662Z,0.10
2019-02-04T03:40:51.346Z,0.12
2019-02-04T03:43:39.798Z,0.21
2019-02-04T03:46:28.231Z,0.14
2019-02-04T03:49:17.153Z,0.19
2019-02-04T03:52:06.372Z,0.24
2019-02-04T03:54:54.750Z,0.24
2019-02-04T03:57:45.595Z,0.09
2019-02-04T04:00:36.155Z,0.13
2019-02-04T04:03:24.757Z,0.14
2019-02-04T04:06:13.507Z,0.12
2019-02-04T04:09:02.295Z,0.18
2019-02-04T04:11:50.938Z,0.25
2019-02-04T04:14:38.982Z,0.25
2019-02-04T04:17:27.528Z,0.30
2019-02-04T04:20:16.519Z,0.34
2019-02-04T04:23:05.113Z,0.27
2019-02-04T04:25:53.480Z,0.20
2019-02-04T04:28:41.876Z,0.24
2019-02-04T04:31:31.288Z,0.35
2019-02-04T04:34:20.107Z,0.33
2019-02-04T04:37:08.948Z,0.39
2019-02-04T04:39:57.553Z,0.44
2019-02-04T04:42:46.174Z,0.44
2019-02-04T04:45:35.321Z,0.43
2019-02-04T04:48:26.722Z,0.40
2019-02-04T04:51:13.928Z,0.38
2019-02-04T04:54:02.963Z,0.35
2019-02-04T04:56:51.922Z,0.33
2019-02-04T04:59:40.656Z,0.35
2019-02-04T05:02:29.823Z,0.38
2019-02-04T05:05:18.719Z,0.44
2019-02-04T05:08:07.662Z,0.52
2019-02-04T05:10:55.804Z,0.55
2019-02-04T05:13:44.115Z,0.59
2019-02-04T05:16:32.566Z,0.56
2019-02-04T05:19:21.588Z,0.60
2019-02-04T05:22:10.331Z,0.61
2019-02-04T05:24:58.572Z,0.52
2019-02-04T05:27:47.555Z,0.57
2019-02-04T05:30:36.004Z,0.53
2019-02-04T05:33:25.266Z,0.44
2019-02-04T05:36:14.993Z,0.44
2019-02-04T05:39:05.151Z,0.44
2019-02-04T05:41:53.752Z,0.39
2019-02-04T05:44:42.331Z,0.46
2019-02-04T05:47:31.263Z,0.53
2019-02-04T05:50:20.364Z,0.33
2019-02-04T05:53:08.538Z,0.42
2019-02-04T05:55:57.630Z,0.45
2019-02-04T05:58:46.436Z,0.42
2019-02-04T06:01:34.941Z,0.44
2019-02-04T06:04:23.896Z,0.46
2019-02-04T06:07:15.380Z,0.54
2019-02-04T06:10:03.062Z,0.59
2019-02-04T06:12:52.422Z,0.61
2019-02-04T06:15:41.388Z,0.60
2019-02-04T06:18:30.090Z,0.52
2019-02-04T06:21:18.756Z,0.52
2019-02-04T06:24:07.434Z,0.49
2019-02-04T06:26:56.582Z,0.51
2019-02-04T06:29:45.447Z,0.57
2019-02-04T06:32:34.688Z,0.57
2019-02-04T06:35:24.183Z,0.60
2019-02-04T06:38:12.470Z,0.66
2019-02-04T06:41:01.122Z,0.72
2019-02-04T06:43:50.145Z,0.72
2019-02-04T06:46:39.090Z,0.74
2019-02-04T06:49:28.239Z,0.74
2019-02-04T06:52:17.365Z,0.75
2019-02-04T06:55:09.093Z,0.78
2019-02-04T06:57:59.420Z,0.81
2019-02-04T07:00:47.966Z,0.84
2019-02-04T07:03:36.446Z,0.86
2019-02-04T07:06:24.646Z,0.88
2019-02-04T07:09:13.239Z,0.91
2019-02-04T07:12:01.875Z,0.87
2019-02-04T07:14:50.622Z,0.91
2019-02-04T07:17:39.618Z,0.86
2019-02-04T07:20:28.812Z,0.86
2019-02-04T07:23:17.582Z,0.87
2019-02-04T07:26:06.287Z,0.92
2019-02-04T07:28:54.547Z,0.96
2019-02-04T07:31:43.484Z,0.97
2019-02-04T07:34:32.496Z,1.02
2019-02-04T07:37:20.803Z,1.08
2019-02-04T07:40:16.128Z,1.11
2019-02-04T07:43:04.522Z,1.16
2019-02-04T07:45:53.662Z,1.17
2019-02-04T07:48:42.602Z,1.21
2019-02-04T07:51:31.137Z,1.27
2019-02-04T07:54:19.787Z,1.29
2019-02-04T07:57:09.073Z,1.33
2019-02-04T07:59:57.363Z,1.34
2019-02-04T08:02:46.087Z,1.34
2019-02-04T08:05:35.014Z,1.31
2019-02-04T08:08:23.423Z,1.29
2019-02-04T08:11:12.215Z,1.20
2019-02-04T08:14:00.829Z,1.14
2019-02-04T08:16:50.368Z,1.08
2019-02-04T08:19:46.779Z,1.02
2019-02-04T08:22:29.363Z,1.03
2019-02-04T08:25:18.894Z,1.02
2019-02-04T08:28:08.363Z,1.04
2019-02-04T08:30:56.739Z,1.12
2019-02-04T08:33:45.249Z,1.16
2019-02-04T08:36:43.542Z,1.19
2019-02-04T08:39:23.887Z,1.22
2019-02-04T08:42:12.936Z,1.24
2019-02-04T08:45:01.613Z,1.27
2019-02-04T08:47:50.627Z,1.30
2019-02-04T08:50:38.741Z,1.33
2019-02-04T08:53:27.251Z,1.38
2019-02-04T08:56:16.295Z,1.39
2019-02-04T08:59:04.951Z,1.44
2019-02-04T09:01:53.135Z,1.51
2019-02-04T09:04:41.575Z,1.53
2019-02-04T09:07:30.098Z,1.57
2019-02-04T09:10:21.442Z,1.59
2019-02-04T09:13:11.020Z,1.62
2019-02-04T09:15:59.791Z,1.67
2019-02-04T09:18:47.775Z,1.71
2019-02-04T09:21:36.620Z,1.73
2019-02-04T09:24:25.264Z,1.75
2019-02-04T09:27:14.322Z,1.76
2019-02-04T09:30:02.430Z,1.78
2019-02-04T09:32:51.311Z,1.83
2019-02-04T09:35:39.967Z,1.89
2019-02-04T09:38:28.864Z,1.91
2019-02-04T09:41:17.375Z,1.99
2019-02-04T09:44:05.949Z,2.08
2019-02-04T09:46:54.907Z,2.25
2019-02-04T09:49:43.889Z,2.37
2019-02-04T09:52:32.557Z,2.45
2019-02-04T09:55:26.930Z,2.51
2019-02-04T09:58:15.566Z,2.61
2019-02-04T10:01:04.536Z,2.64
2019-02-04T10:03:53.501Z,2.92
2019-02-04T10:06:42.370Z,3.14
2019-02-04T10:09:30.755Z,3.33
2019-02-04T10:12:19.383Z,3.39
2019-02-04T10:15:12.309Z,3.58
2019-02-04T10:18:02.249Z,3.62
2019-02-04T10:20:51.369Z,3.61
2019-02-04T10:23:40.238Z,3.64
2019-02-04T10:26:28.625Z,3.42
2019-02-04T10:29:17.658Z,3.30
2019-02-04T10:32:06.208Z,3.47
2019-02-04T10:34:54.671Z,3.84
2019-02-04T10:37:43.216Z,3.97
2019-02-04T10:40:32.338Z,4.11
2019-02-04T10:43:20.760Z,4.02
2019-02-04T10:46:10.224Z,3.99
2019-02-04T10:48:59.495Z,3.60
2019-02-04T10:51:47.998Z,3.72
2019-02-04T10:54:36.721Z,3.93
2019-02-04T10:57:25.931Z,4.11
2019-02-04T11:00:17.530Z,4.38
2019-02-04T11:03:06.236Z,4.46
2019-02-04T11:05:54.909Z,4.57
2019-02-04T11:08:43.627Z,4.78
2019-02-04T11:11:32.389Z,4.80
2019-02-04T11:14:21.287Z,4.71
2019-02-04T11:17:10.890Z,4.57
2019-02-04T11:19:59.318Z,4.38
2019-02-04T11:22:48.113Z,4.60
2019-02-04T11:25:37.664Z,4.81
2019-02-04T11:28:26.295Z,4.77
2019-02-04T11:31:14.959Z,4.62
2019-02-04T11:34:04.061Z,4.17
2019-02-04T11:36:53.259Z,4.61
2019-02-04T11:39:41.459Z,5.00
2019-02-04T11:42:29.917Z,5.22
2019-02-04T11:45:18.241Z,5.46
2019-02-04T11:48:09.659Z,6.21
2019-02-04T11:51:08.920Z,6.57
2019-02-04T11:53:48.680Z,6.75
2019-02-04T11:56:37.461Z,6.90
2019-02-04T11:59:26.416Z,7.40
2019-02-04T12:02:15.539Z,7.42
2019-02-04T12:05:04.687Z,7.72
2019-02-04T12:07:53.025Z,7.46
2019-02-04T12:10:50.091Z,7.45
2019-02-04T12:13:39.598Z,7.29
2019-02-04T12:16:28.050Z,7.97
2019-02-04T12:19:16.196Z,8.53
2019-02-04T12:22:05.277Z,9.04
2019-02-04T12:24:53.614Z,9.58
2019-02-04T12:27:42.574Z,10.07
2019-02-04T12:30:37.251Z,10.46
2019-02-04T12:33:25.556Z,10.58
2019-02-04T12:36:14.172Z,10.42
2019-02-04T12:39:04.029Z,10.11
2019-02-04T12:41:52.602Z,9.30
2019-02-04T12:44:40.777Z,8.75
2019-02-04T12:47:29.901Z,8.12
2019-02-04T12:50:18.056Z,7.60
2019-02-04T12:53:06.933Z,7.18
2019-02-04T12:55:55.510Z,6.80
2019-02-04T12:58:55.087Z,6.43
2019-02-04T13:01:34.310Z,6.19
2019-02-04T13:04:23.229Z,5.84
2019-02-04T13:07:12.103Z,5.57
2019-02-04T13:10:00.263Z,5.23
2019-02-04T13:12:48.363Z,5.36
2019-02-04T13:15:37.214Z,5.46
2019-02-04T13:18:26.194Z,5.92
2019-02-04T13:21:15.124Z,6.41
2019-02-04T13:24:04.294Z,6.78
2019-02-04T13:26:53.056Z,7.10
2019-02-04T13:29:42.332Z,7.17
2019-02-04T13:32:31.836Z,7.24
2019-02-04T13:35:21.019Z,7.28
2019-02-04T13:38:09.497Z,7.52
2019-02-04T13:41:07.483Z,7.40
2019-02-04T13:43:48.002Z,7.73
2019-02-04T13:46:36.610Z,7.97
2019-02-04T13:49:25.302Z,7.98
2019-02-04T13:52:15.347Z,8.08
2019-02-04T13:55:05.823Z,7.99
2019-02-04T13:57:54.647Z,7.73
2019-02-04T14:00:43.351Z,7.71
2019-02-04T14:03:32.043Z,7.55
2019-02-04T14:06:20.732Z,7.17
2019-02-04T14:09:22.079Z,6.96
2019-02-04T14:12:10.467Z,6.58
2019-02-04T14:14:59.575Z,6.19
2019-02-04T14:17:48.035Z,5.99
2019-02-04T14:20:37.253Z,5.60
2019-02-04T14:23:27.493Z,5.43
2019-02-04T14:26:15.699Z,5.37
2019-02-04T14:29:04.184Z,5.20
2019-02-04T14:31:53.315Z,5.05
2019-02-04T14:34:42.245Z,4.86
2019-02-04T14:37:31.132Z,4.69
2019-02-04T14:40:19.683Z,4.12
2019-02-04T14:43:42.149Z,4.23
2019-02-04T14:46:53.148Z,3.99
2019-02-04T14:50:15.376Z,4.01
2019-02-04T14:53:36.896Z,4.01
2019-02-04T14:56:57.323Z,3.90
2019-02-04T14:59:51.858Z,4.01
2019-02-04T15:03:19.656Z,3.85
2019-02-04T15:06:34.947Z,3.59
2019-02-04T15:09:55.514Z,3.58
2019-02-04T15:13:08.389Z,3.44
2019-02-04T15:16:27.747Z,3.46
2019-02-04T15:19:58.380Z,3.32
2019-02-04T15:23:14.800Z,3.20
2019-02-04T15:26:45.006Z,2.98
2019-02-04T15:30:10.433Z,3.01
2019-02-04T15:33:45.098Z,2.88
2019-02-04T15:36:59.423Z,3.06
2019-02-04T15:39:59.738Z,3.13
2019-02-04T15:43:26.023Z,2.77
2019-02-04T15:46:36.524Z,2.41
2019-02-04T15:50:12.422Z,2.62
2019-02-04T15:53:01.455Z,2.38
2019-02-04T15:55:50.591Z,2.31
2019-02-04T15:58:39.416Z,2.35
2019-02-04T16:01:28.251Z,2.30
2019-02-04T16:04:33.338Z,2.23
2019-02-04T16:07:23.937Z,2.03
2019-02-04T16:10:15.464Z,2.02
2019-02-04T16:13:03.843Z,1.91
2019-02-04T16:15:52.525Z,1.93
2019-02-04T16:18:40.967Z,1.81
2019-02-04T16:21:30.332Z,1.51
2019-02-04T16:24:18.859Z,1.57
2019-02-04T16:27:07.102Z,1.47
2019-02-04T16:29:55.997Z,1.44
2019-02-04T16:32:44.714Z,1.44
2019-02-04T16:35:33.554Z,1.34
2019-02-04T16:38:21.875Z,1.37
2019-02-04T16:41:10.304Z,1.38
2019-02-04T16:43:58.932Z,1.39
2019-02-04T16:46:48.231Z,1.40
2019-02-04T16:49:37.163Z,1.35
2019-02-04T16:52:25.833Z,1.39
2019-02-04T16:55:14.902Z,1.40
2019-02-04T16:58:03.740Z,1.40
2019-02-04T17:00:51.934Z,1.35
2019-02-04T17:03:41.116Z,1.32
2019-02-04T17:06:30.121Z,1.31
2019-02-04T17:09:19.196Z,1.38
2019-02-04T17:12:08.432Z,1.34
2019-02-04T17:14:57.122Z,1.44
2019-02-04T17:17:46.382Z,1.47
2019-02-04T17:20:35.097Z,1.49
2019-02-04T17:23:23.895Z,1.55
2019-02-04T17:26:12.107Z,1.49
2019-02-04T17:29:00.920Z,1.50
2019-02-04T17:31:49.819Z,1.49
2019-02-04T17:34:39.818Z,1.22
2019-02-04T17:37:28.701Z,1.29
2019-02-04T17:40:20.852Z,1.36
2019-02-04T17:43:09.490Z,1.34
2019-02-04T17:45:57.977Z,1.27
2019-02-04T17:48:46.729Z,1.09
2019-02-04T17:51:35.667Z,1.12
2019-02-04T17:54:24.288Z,1.06
2019-02-04T17:57:13.015Z,1.09
2019-02-04T18:00:01.707Z,0.87
2019-02-04T18:02:51.248Z,0.91
2019-02-04T18:05:40.447Z,0.99
2019-02-04T18:08:28.679Z,0.96
2019-02-04T18:11:17.643Z,0.90
2019-02-04T18:14:06.361Z,0.84
2019-02-04T18:16:55.344Z,0.70
2019-02-04T18:19:44.585Z,0.75
2019-02-04T18:22:33.445Z,0.65
2019-02-04T18:25:22.384Z,0.64
2019-02-04T18:28:10.798Z,0.67
2019-02-04T18:30:59.378Z,0.66
2019-02-04T18:33:48.112Z,0.60
2019-02-04T18:36:36.780Z,0.56
2019-02-04T18:39:26.132Z,0.55
2019-02-04T18:42:15.009Z,0.55
2019-02-04T18:45:05.532Z,0.54
2019-02-04T18:47:54.751Z,0.52
2019-02-04T18:50:44.478Z,0.48
2019-02-04T18:53:33.336Z,0.48
2019-02-04T18:56:22.966Z,0.43
2019-02-04T18:59:11.851Z,0.38
2019-02-04T19:02:00.611Z,0.37
2019-02-04T19:04:49.816Z,0.42
2019-02-04T19:07:38.328Z,0.48
2019-02-04T19:10:27.449Z,0.49
2019-02-04T19:13:16.468Z,0.48
2019-02-04T19:16:05.912Z,0.44
2019-02-04T19:18:54.548Z,0.38
2019-02-04T19:21:43.423Z,0.27
2019-02-04T19:24:32.040Z,0.27
2019-02-04T19:27:21.223Z,0.19
2019-02-04T19:30:23.193Z,0.18
2019-02-04T19:33:13.857Z,0.11
2019-02-04T19:36:03.060Z,0.13
2019-02-04T19:38:51.861Z,0.18
2019-02-04T19:41:41.268Z,0.20
2019-02-04T19:44:30.660Z,0.24
2019-02-04T19:47:19.098Z,0.29
2019-02-04T19:50:10.366Z,0.38
2019-02-04T19:52:59.327Z,0.44
2019-02-04T19:55:47.880Z,0.54
2019-02-04T19:58:36.510Z,0.64
2019-02-04T20:01:25.424Z,0.69
2019-02-04T20:04:15.426Z,0.68
2019-02-04T20:07:04.825Z,0.66
2019-02-04T20:09:54.724Z,0.61
2019-02-04T20:12:43.042Z,0.67
2019-02-04T20:15:32.485Z,0.73
2019-02-04T20:18:20.834Z,0.76
2019-02-04T20:21:10.090Z,0.81
2019-02-04T20:23:58.844Z,0.83
2019-02-04T20:26:47.650Z,0.85
2019-02-04T20:29:37.173Z,0.88
2019-02-04T20:32:26.520Z,0.91
2019-02-04T20:35:15.857Z,0.92
2019-02-04T20:38:04.954Z,0.92
2019-02-04T20:40:54.152Z,0.89
2019-02-04T20:43:43.184Z,0.96
2019-02-04T20:46:31.959Z,0.93
2019-02-04T20:49:20.700Z,0.99
2019-02-04T20:52:10.653Z,1.04
2019-02-04T20:54:59.452Z,1.09
2019-02-04T20:57:48.360Z,1.10
2019-02-04T21:00:37.433Z,1.12
2019-02-04T21:03:26.326Z,1.18
2019-02-04T21:06:15.142Z,1.19
2019-02-04T21:09:08.464Z,1.16
2019-02-04T21:11:57.278Z,1.11
2019-02-04T21:14:45.934Z,1.13
2019-02-04T21:17:34.284Z,1.17
2019-02-04T21:20:25.145Z,1.18
2019-02-04T21:23:13.717Z,1.15
2019-02-04T21:26:02.163Z,1.17
2019-02-04T21:28:50.942Z,1.17
2019-02-04T21:31:40.549Z,1.09
2019-02-04T21:34:29.664Z,1.07
2019-02-04T21:37:18.432Z,1.10
2019-02-04T21:40:09.285Z,1.12
2019-02-04T21:42:58.447Z,1.17
2019-02-04T21:45:47.670Z,1.10
2019-02-04T21:48:36.538Z,1.04
2019-02-04T21:51:25.875Z,1.08
2019-02-04T21:54:14.397Z,0.87
2019-02-04T21:57:02.965Z,0.77
2019-02-04T21:59:52.014Z,0.88
2019-02-04T22:02:41.317Z,0.97
2019-02-04T22:05:31.204Z,0.97
2019-02-04T22:08:19.643Z,1.01
2019-02-04T22:11:08.872Z,1.02
2019-02-04T22:13:57.823Z,0.95
2019-02-04T22:16:46.368Z,0.99
2019-02-04T22:19:35.186Z,1.10
2019-02-04T22:22:23.727Z,1.13
2019-02-04T22:25:19.806Z,1.07
2019-02-04T22:28:03.269Z,1.05
2019-02-04T22:30:53.101Z,1.08
2019-02-04T22:33:42.110Z,1.13
2019-02-04T22:36:31.197Z,1.16
2019-02-04T22:39:19.890Z,1.18
2019-02-04T22:42:08.449Z,1.22
2019-02-04T22:44:57.501Z,1.22
2019-02-04T22:47:46.400Z,1.17
2019-02-04T22:50:35.340Z,1.15
2019-02-04T22:53:23.846Z,1.10
2019-02-04T22:56:12.061Z,1.10
2019-02-04T22:59:01.632Z,1.12
2019-02-04T23:01:54.233Z,0.91
2019-02-04T23:04:43.705Z,0.60
2019-02-04T23:07:32.256Z,0.66
2019-02-04T23:10:21.645Z,0.56
2019-02-04T23:13:10.366Z,0.51
2019-02-04T23:15:59.309Z,0.52
2019-02-04T23:18:47.854Z,0.61
2019-02-04T23:21:36.335Z,0.74
2019-02-04T23:24:24.953Z,0.85
2019-02-04T23:27:13.740Z,0.89
2019-02-04T23:30:02.954Z,0.90
2019-02-04T23:32:51.980Z,0.93
2019-02-04T23:35:41.367Z,0.95
2019-02-04T23:38:30.253Z,0.95
2019-02-04T23:41:18.850Z,0.94
2019-02-04T23:44:07.956Z,1.02
2019-02-04T23:46:56.392Z,1.04
2019-02-04T23:49:44.933Z,1.04
2019-02-04T23:52:33.511Z,1.09
2019-02-04T23:55:22.545Z,1.06
2019-02-04T23:58:11.327Z,1.05
